sensor_id;sensor_type;location;lat;lon;timestamp;temperature;humidity
6256;DHT22;3161;48.794;9.784;2023-07-08T00:00:27;19.50;80.90
6256;DHT22;3161;48.794;9.784;2023-07-08T00:02:54;19.50;81.00
6256;DHT22;3161;48.794;9.784;2023-07-08T00:05:23;19.40;82.40
6256;DHT22;3161;48.794;9.784;2023-07-08T00:07:52;19.40;84.10
6256;DHT22;3161;48.794;9.784;2023-07-08T00:10:22;19.40;85.10
6256;DHT22;3161;48.794;9.784;2023-07-08T00:12:51;19.30;84.90
6256;DHT22;3161;48.794;9.784;2023-07-08T00:15:28;19.30;83.60
6256;DHT22;3161;48.794;9.784;2023-07-08T00:17:56;19.30;83.70
6256;DHT22;3161;48.794;9.784;2023-07-08T00:20:36;19.20;85.10
6256;DHT22;3161;48.794;9.784;2023-07-08T00:22:59;19.20;83.50
6256;DHT22;3161;48.794;9.784;2023-07-08T00:25:31;19.10;84.30
6256;DHT22;3161;48.794;9.784;2023-07-08T00:27:59;19.10;85.00
6256;DHT22;3161;48.794;9.784;2023-07-08T00:30:31;19.10;84.00
6256;DHT22;3161;48.794;9.784;2023-07-08T00:33:00;19.00;83.70
6256;DHT22;3161;48.794;9.784;2023-07-08T00:35:36;19.00;84.20
6256;DHT22;3161;48.794;9.784;2023-07-08T00:38:21;19.00;84.90
6256;DHT22;3161;48.794;9.784;2023-07-08T00:40:59;19.00;85.50
6256;DHT22;3161;48.794;9.784;2023-07-08T00:51:39;18.80;87.90
6256;DHT22;3161;48.794;9.784;2023-07-08T00:54:12;18.80;85.70
6256;DHT22;3161;48.794;9.784;2023-07-08T00:56:57;18.70;86.60
6256;DHT22;3161;48.794;9.784;2023-07-08T00:59:28;18.70;86.20
6256;DHT22;3161;48.794;9.784;2023-07-08T01:01:56;18.60;87.10
6256;DHT22;3161;48.794;9.784;2023-07-08T01:04:38;18.60;85.60
6256;DHT22;3161;48.794;9.784;2023-07-08T01:07:04;18.50;87.20
6256;DHT22;3161;48.794;9.784;2023-07-08T01:09:40;18.50;87.90
6256;DHT22;3161;48.794;9.784;2023-07-08T01:12:07;18.50;88.50
6256;DHT22;3161;48.794;9.784;2023-07-08T01:14:36;18.40;86.40
6256;DHT22;3161;48.794;9.784;2023-07-08T01:17:05;18.40;87.20
6256;DHT22;3161;48.794;9.784;2023-07-08T01:19:33;18.40;88.60
6256;DHT22;3161;48.794;9.784;2023-07-08T01:22:02;18.30;88.50
6256;DHT22;3161;48.794;9.784;2023-07-08T01:24:32;18.30;88.30
6256;DHT22;3161;48.794;9.784;2023-07-08T01:27:01;18.30;88.70
6256;DHT22;3161;48.794;9.784;2023-07-08T01:29:30;18.30;89.10
6256;DHT22;3161;48.794;9.784;2023-07-08T01:31:59;18.20;88.90
6256;DHT22;3161;48.794;9.784;2023-07-08T01:34:30;18.20;89.60
6256;DHT22;3161;48.794;9.784;2023-07-08T01:36:59;18.20;87.00
6256;DHT22;3161;48.794;9.784;2023-07-08T01:39:29;18.20;87.80
6256;DHT22;3161;48.794;9.784;2023-07-08T01:41:58;18.20;87.00
6256;DHT22;3161;48.794;9.784;2023-07-08T01:44:35;18.10;88.20
6256;DHT22;3161;48.794;9.784;2023-07-08T01:47:14;18.10;88.20
6256;DHT22;3161;48.794;9.784;2023-07-08T01:49:43;18.00;88.20
6256;DHT22;3161;48.794;9.784;2023-07-08T01:52:13;18.00;90.30
6256;DHT22;3161;48.794;9.784;2023-07-08T01:54:42;18.00;90.70
6256;DHT22;3161;48.794;9.784;2023-07-08T01:57:09;17.90;90.70
6256;DHT22;3161;48.794;9.784;2023-07-08T01:59:37;17.90;90.50
6256;DHT22;3161;48.794;9.784;2023-07-08T02:02:04;17.90;91.00
6256;DHT22;3161;48.794;9.784;2023-07-08T02:04:32;17.90;91.00
6256;DHT22;3161;48.794;9.784;2023-07-08T02:07:00;17.80;91.10
6256;DHT22;3161;48.794;9.784;2023-07-08T02:09:28;17.80;91.50
6256;DHT22;3161;48.794;9.784;2023-07-08T02:11:56;17.80;91.50
6256;DHT22;3161;48.794;9.784;2023-07-08T02:14:24;17.80;91.80
6256;DHT22;3161;48.794;9.784;2023-07-08T02:16:53;17.70;92.10
6256;DHT22;3161;48.794;9.784;2023-07-08T02:19:20;17.70;92.10
6256;DHT22;3161;48.794;9.784;2023-07-08T02:21:48;17.70;91.40
6256;DHT22;3161;48.794;9.784;2023-07-08T02:24:18;17.60;91.10
6256;DHT22;3161;48.794;9.784;2023-07-08T02:26:45;17.60;91.70
6256;DHT22;3161;48.794;9.784;2023-07-08T02:29:14;17.60;91.70
6256;DHT22;3161;48.794;9.784;2023-07-08T02:31:42;17.60;91.80
6256;DHT22;3161;48.794;9.784;2023-07-08T02:34:10;17.50;92.50
6256;DHT22;3161;48.794;9.784;2023-07-08T02:36:37;17.50;92.00
6256;DHT22;3161;48.794;9.784;2023-07-08T02:39:05;17.50;91.40
6256;DHT22;3161;48.794;9.784;2023-07-08T02:41:33;17.40;91.70
6256;DHT22;3161;48.794;9.784;2023-07-08T02:44:00;17.40;92.30
6256;DHT22;3161;48.794;9.784;2023-07-08T02:46:28;17.40;92.40
6256;DHT22;3161;48.794;9.784;2023-07-08T02:48:55;17.40;92.30
6256;DHT22;3161;48.794;9.784;2023-07-08T02:51:23;17.40;92.00
6256;DHT22;3161;48.794;9.784;2023-07-08T02:53:50;17.40;92.40
6256;DHT22;3161;48.794;9.784;2023-07-08T02:56:18;17.30;92.00
6256;DHT22;3161;48.794;9.784;2023-07-08T02:58:45;17.30;92.40
6256;DHT22;3161;48.794;9.784;2023-07-08T03:01:12;17.30;92.80
6256;DHT22;3161;48.794;9.784;2023-07-08T03:03:42;17.30;92.90
6256;DHT22;3161;48.794;9.784;2023-07-08T03:06:10;17.20;92.80
6256;DHT22;3161;48.794;9.784;2023-07-08T03:08:37;17.20;92.70
6256;DHT22;3161;48.794;9.784;2023-07-08T03:11:06;17.20;92.90
6256;DHT22;3161;48.794;9.784;2023-07-08T03:13:34;17.10;93.10
6256;DHT22;3161;48.794;9.784;2023-07-08T03:16:03;17.10;93.30
6256;DHT22;3161;48.794;9.784;2023-07-08T03:18:32;17.10;92.50
6256;DHT22;3161;48.794;9.784;2023-07-08T03:21:01;17.00;92.70
6256;DHT22;3161;48.794;9.784;2023-07-08T03:23:29;16.90;93.30
6256;DHT22;3161;48.794;9.784;2023-07-08T03:25:56;16.90;93.90
6256;DHT22;3161;48.794;9.784;2023-07-08T03:28:24;16.90;93.60
6256;DHT22;3161;48.794;9.784;2023-07-08T03:30:52;16.80;93.80
6256;DHT22;3161;48.794;9.784;2023-07-08T03:33:20;16.90;94.10
6256;DHT22;3161;48.794;9.784;2023-07-08T03:35:49;16.90;93.70
6256;DHT22;3161;48.794;9.784;2023-07-08T03:38:17;16.80;94.20
6256;DHT22;3161;48.794;9.784;2023-07-08T03:40:44;16.90;94.20
6256;DHT22;3161;48.794;9.784;2023-07-08T03:43:12;16.80;93.90
6256;DHT22;3161;48.794;9.784;2023-07-08T03:45:39;16.80;94.40
6256;DHT22;3161;48.794;9.784;2023-07-08T03:48:10;16.80;94.60
6256;DHT22;3161;48.794;9.784;2023-07-08T03:50:38;16.70;94.80
6256;DHT22;3161;48.794;9.784;2023-07-08T03:53:06;16.80;95.00
6256;DHT22;3161;48.794;9.784;2023-07-08T03:55:33;16.70;95.10
6256;DHT22;3161;48.794;9.784;2023-07-08T03:58:01;16.80;95.00
6256;DHT22;3161;48.794;9.784;2023-07-08T04:00:28;16.80;95.00
6256;DHT22;3161;48.794;9.784;2023-07-08T04:02:56;16.80;94.70
6256;DHT22;3161;48.794;9.784;2023-07-08T04:05:23;16.90;94.90
6256;DHT22;3161;48.794;9.784;2023-07-08T04:07:51;16.80;94.40
6256;DHT22;3161;48.794;9.784;2023-07-08T04:10:19;16.90;95.00
6256;DHT22;3161;48.794;9.784;2023-07-08T04:12:47;16.90;95.20
6256;DHT22;3161;48.794;9.784;2023-07-08T04:15:14;16.90;95.30
6256;DHT22;3161;48.794;9.784;2023-07-08T04:17:47;17.00;95.30
6256;DHT22;3161;48.794;9.784;2023-07-08T04:20:17;17.10;95.40
6256;DHT22;3161;48.794;9.784;2023-07-08T04:22:46;17.00;95.30
6256;DHT22;3161;48.794;9.784;2023-07-08T04:25:14;17.10;94.70
6256;DHT22;3161;48.794;9.784;2023-07-08T04:27:42;17.20;94.60
6256;DHT22;3161;48.794;9.784;2023-07-08T04:30:17;17.30;94.50
6256;DHT22;3161;48.794;9.784;2023-07-08T04:32:40;17.30;94.60
6256;DHT22;3161;48.794;9.784;2023-07-08T04:35:08;17.40;94.50
6256;DHT22;3161;48.794;9.784;2023-07-08T04:37:36;17.40;95.00
6256;DHT22;3161;48.794;9.784;2023-07-08T04:40:05;17.40;94.90
6256;DHT22;3161;48.794;9.784;2023-07-08T04:42:33;17.50;95.30
6256;DHT22;3161;48.794;9.784;2023-07-08T04:45:01;17.50;96.10
6256;DHT22;3161;48.794;9.784;2023-07-08T04:47:30;17.60;95.70
6256;DHT22;3161;48.794;9.784;2023-07-08T04:49:59;17.60;95.20
6256;DHT22;3161;48.794;9.784;2023-07-08T04:52:27;17.70;94.80
6256;DHT22;3161;48.794;9.784;2023-07-08T04:54:54;17.70;95.30
6256;DHT22;3161;48.794;9.784;2023-07-08T04:57:22;17.80;95.40
6256;DHT22;3161;48.794;9.784;2023-07-08T04:59:49;17.80;95.80
6256;DHT22;3161;48.794;9.784;2023-07-08T05:02:17;17.90;96.20
6256;DHT22;3161;48.794;9.784;2023-07-08T05:04:46;17.90;96.40
6256;DHT22;3161;48.794;9.784;2023-07-08T05:07:13;18.00;96.30
6256;DHT22;3161;48.794;9.784;2023-07-08T05:09:41;18.00;96.30
6256;DHT22;3161;48.794;9.784;2023-07-08T05:12:09;18.10;97.70
6256;DHT22;3161;48.794;9.784;2023-07-08T05:14:36;18.20;97.90
6256;DHT22;3161;48.794;9.784;2023-07-08T05:17:04;18.20;98.40
6256;DHT22;3161;48.794;9.784;2023-07-08T05:19:31;18.30;98.50
6256;DHT22;3161;48.794;9.784;2023-07-08T05:21:59;18.40;98.70
6256;DHT22;3161;48.794;9.784;2023-07-08T05:24:27;18.50;97.80
6256;DHT22;3161;48.794;9.784;2023-07-08T05:26:54;18.60;97.80
6256;DHT22;3161;48.794;9.784;2023-07-08T05:29:22;18.80;97.60
6256;DHT22;3161;48.794;9.784;2023-07-08T05:31:50;18.90;96.40
6256;DHT22;3161;48.794;9.784;2023-07-08T05:34:17;19.00;96.50
6256;DHT22;3161;48.794;9.784;2023-07-08T05:36:45;19.20;96.20
6256;DHT22;3161;48.794;9.784;2023-07-08T05:39:12;19.40;96.10
6256;DHT22;3161;48.794;9.784;2023-07-08T05:41:40;19.50;96.60
6256;DHT22;3161;48.794;9.784;2023-07-08T05:44:07;19.70;96.70
6256;DHT22;3161;48.794;9.784;2023-07-08T05:46:35;19.80;95.40
6256;DHT22;3161;48.794;9.784;2023-07-08T05:49:02;19.80;95.00
6256;DHT22;3161;48.794;9.784;2023-07-08T05:51:30;19.90;95.30
6256;DHT22;3161;48.794;9.784;2023-07-08T05:53:57;20.00;95.60
6256;DHT22;3161;48.794;9.784;2023-07-08T05:56:25;20.20;95.60
6256;DHT22;3161;48.794;9.784;2023-07-08T05:58:52;20.30;95.50
6256;DHT22;3161;48.794;9.784;2023-07-08T06:01:20;20.50;95.10
6256;DHT22;3161;48.794;9.784;2023-07-08T06:03:48;20.70;95.10
6256;DHT22;3161;48.794;9.784;2023-07-08T06:06:16;20.90;95.00
6256;DHT22;3161;48.794;9.784;2023-07-08T06:08:44;21.20;93.80
6256;DHT22;3161;48.794;9.784;2023-07-08T06:11:11;21.40;93.60
6256;DHT22;3161;48.794;9.784;2023-07-08T06:13:39;21.60;93.00
6256;DHT22;3161;48.794;9.784;2023-07-08T06:16:06;21.80;92.20
6256;DHT22;3161;48.794;9.784;2023-07-08T06:18:34;21.90;91.80
6256;DHT22;3161;48.794;9.784;2023-07-08T06:21:02;22.00;91.80
6256;DHT22;3161;48.794;9.784;2023-07-08T06:23:30;22.20;92.00
6256;DHT22;3161;48.794;9.784;2023-07-08T06:25:57;22.30;91.90
6256;DHT22;3161;48.794;9.784;2023-07-08T06:28:25;22.40;92.10
6256;DHT22;3161;48.794;9.784;2023-07-08T06:30:52;22.40;92.30
6256;DHT22;3161;48.794;9.784;2023-07-08T06:33:20;22.50;92.50
6256;DHT22;3161;48.794;9.784;2023-07-08T06:35:47;22.60;92.00
6256;DHT22;3161;48.794;9.784;2023-07-08T06:38:15;22.70;92.00
6256;DHT22;3161;48.794;9.784;2023-07-08T06:40:42;22.80;92.00
6256;DHT22;3161;48.794;9.784;2023-07-08T06:43:10;23.00;92.00
6256;DHT22;3161;48.794;9.784;2023-07-08T06:45:37;23.10;92.00
6256;DHT22;3161;48.794;9.784;2023-07-08T06:48:05;23.30;92.10
6256;DHT22;3161;48.794;9.784;2023-07-08T06:50:33;23.50;92.00
6256;DHT22;3161;48.794;9.784;2023-07-08T06:53:00;23.60;91.90
6256;DHT22;3161;48.794;9.784;2023-07-08T06:55:28;23.80;90.80
6256;DHT22;3161;48.794;9.784;2023-07-08T06:57:56;23.90;90.10
6256;DHT22;3161;48.794;9.784;2023-07-08T07:00:24;24.10;89.20
6256;DHT22;3161;48.794;9.784;2023-07-08T07:02:51;24.20;86.70
6256;DHT22;3161;48.794;9.784;2023-07-08T07:05:19;24.30;87.40
6256;DHT22;3161;48.794;9.784;2023-07-08T07:07:47;24.40;88.60
6256;DHT22;3161;48.794;9.784;2023-07-08T07:10:14;24.50;88.80
6256;DHT22;3161;48.794;9.784;2023-07-08T07:12:42;24.50;87.60
6256;DHT22;3161;48.794;9.784;2023-07-08T07:15:09;24.60;86.90
6256;DHT22;3161;48.794;9.784;2023-07-08T07:17:37;24.70;87.60
6256;DHT22;3161;48.794;9.784;2023-07-08T07:20:05;24.80;85.90
6256;DHT22;3161;48.794;9.784;2023-07-08T07:22:33;24.90;84.80
6256;DHT22;3161;48.794;9.784;2023-07-08T07:25:01;25.00;86.60
6256;DHT22;3161;48.794;9.784;2023-07-08T07:27:28;25.10;84.20
6256;DHT22;3161;48.794;9.784;2023-07-08T07:29:56;25.20;84.10
6256;DHT22;3161;48.794;9.784;2023-07-08T07:32:26;25.40;85.80
6256;DHT22;3161;48.794;9.784;2023-07-08T07:34:56;25.50;84.20
6256;DHT22;3161;48.794;9.784;2023-07-08T07:37:25;25.50;81.70
6256;DHT22;3161;48.794;9.784;2023-07-08T07:39:52;25.60;78.30
6256;DHT22;3161;48.794;9.784;2023-07-08T07:42:20;25.70;78.70
6256;DHT22;3161;48.794;9.784;2023-07-08T07:44:48;25.80;76.10
6256;DHT22;3161;48.794;9.784;2023-07-08T07:47:15;25.80;76.70
6256;DHT22;3161;48.794;9.784;2023-07-08T07:49:43;25.80;75.10
6256;DHT22;3161;48.794;9.784;2023-07-08T07:52:11;25.90;73.50
6256;DHT22;3161;48.794;9.784;2023-07-08T07:54:39;25.90;74.60
6256;DHT22;3161;48.794;9.784;2023-07-08T07:57:07;25.90;73.10
6256;DHT22;3161;48.794;9.784;2023-07-08T07:59:34;25.90;72.80
6256;DHT22;3161;48.794;9.784;2023-07-08T08:02:02;25.80;75.40
6256;DHT22;3161;48.794;9.784;2023-07-08T08:04:29;25.80;73.40
6256;DHT22;3161;48.794;9.784;2023-07-08T08:06:57;25.80;73.60
6256;DHT22;3161;48.794;9.784;2023-07-08T08:09:25;25.80;74.40
6256;DHT22;3161;48.794;9.784;2023-07-08T08:11:52;25.80;74.70
6256;DHT22;3161;48.794;9.784;2023-07-08T08:14:21;25.80;73.50
6256;DHT22;3161;48.794;9.784;2023-07-08T08:16:48;25.80;74.00
6256;DHT22;3161;48.794;9.784;2023-07-08T08:19:16;25.90;76.30
6256;DHT22;3161;48.794;9.784;2023-07-08T08:21:43;25.90;73.40
6256;DHT22;3161;48.794;9.784;2023-07-08T08:24:11;25.90;72.90
6256;DHT22;3161;48.794;9.784;2023-07-08T08:26:38;25.90;72.90
6256;DHT22;3161;48.794;9.784;2023-07-08T08:29:06;25.80;73.10
6256;DHT22;3161;48.794;9.784;2023-07-08T08:31:33;25.80;73.20
6256;DHT22;3161;48.794;9.784;2023-07-08T08:34:01;25.80;73.40
6256;DHT22;3161;48.794;9.784;2023-07-08T08:36:28;25.80;73.50
6256;DHT22;3161;48.794;9.784;2023-07-08T08:38:56;25.90;73.60
6256;DHT22;3161;48.794;9.784;2023-07-08T08:41:33;25.90;74.00
6256;DHT22;3161;48.794;9.784;2023-07-08T08:44:02;26.00;73.20
6256;DHT22;3161;48.794;9.784;2023-07-08T08:46:41;26.00;73.50
6256;DHT22;3161;48.794;9.784;2023-07-08T08:51:44;26.30;75.10
6256;DHT22;3161;48.794;9.784;2023-07-08T08:54:12;26.50;71.50
6256;DHT22;3161;48.794;9.784;2023-07-08T08:59:49;26.60;71.40
6256;DHT22;3161;48.794;9.784;2023-07-08T09:02:37;26.90;71.30
6256;DHT22;3161;48.794;9.784;2023-07-08T09:05:08;27.10;70.70
6256;DHT22;3161;48.794;9.784;2023-07-08T09:10:48;27.50;69.50
6256;DHT22;3161;48.794;9.784;2023-07-08T09:13:31;27.80;68.30
6256;DHT22;3161;48.794;9.784;2023-07-08T09:18:53;28.00;66.90
6256;DHT22;3161;48.794;9.784;2023-07-08T09:21:20;28.10;65.80
6256;DHT22;3161;48.794;9.784;2023-07-08T09:23:50;28.20;66.40
6256;DHT22;3161;48.794;9.784;2023-07-08T09:26:22;28.30;68.50
6256;DHT22;3161;48.794;9.784;2023-07-08T09:28:49;28.50;67.30
6256;DHT22;3161;48.794;9.784;2023-07-08T09:31:28;28.80;65.40
6256;DHT22;3161;48.794;9.784;2023-07-08T09:34:04;29.00;68.50
6256;DHT22;3161;48.794;9.784;2023-07-08T09:36:24;29.20;68.80
6256;DHT22;3161;48.794;9.784;2023-07-08T09:38:52;29.50;68.00
6256;DHT22;3161;48.794;9.784;2023-07-08T09:41:35;29.70;64.40
6256;DHT22;3161;48.794;9.784;2023-07-08T09:46:45;30.10;65.40
6256;DHT22;3161;48.794;9.784;2023-07-08T09:49:21;30.20;61.00
6256;DHT22;3161;48.794;9.784;2023-07-08T09:51:49;30.20;59.10
6256;DHT22;3161;48.794;9.784;2023-07-08T09:54:19;30.10;60.00
6256;DHT22;3161;48.794;9.784;2023-07-08T09:56:54;30.00;59.30
6256;DHT22;3161;48.794;9.784;2023-07-08T09:59:19;29.90;59.80
6256;DHT22;3161;48.794;9.784;2023-07-08T10:01:48;29.80;61.10
6256;DHT22;3161;48.794;9.784;2023-07-08T10:04:17;29.80;60.60
6256;DHT22;3161;48.794;9.784;2023-07-08T10:06:47;29.80;61.20
6256;DHT22;3161;48.794;9.784;2023-07-08T10:09:18;29.70;61.70
6256;DHT22;3161;48.794;9.784;2023-07-08T10:11:55;29.70;59.90
6256;DHT22;3161;48.794;9.784;2023-07-08T10:14:39;29.60;62.60
6256;DHT22;3161;48.794;9.784;2023-07-08T10:17:02;29.50;60.20
6256;DHT22;3161;48.794;9.784;2023-07-08T10:19:30;29.40;61.20
6256;DHT22;3161;48.794;9.784;2023-07-08T10:24:45;29.20;62.00
6256;DHT22;3161;48.794;9.784;2023-07-08T10:30:26;28.80;63.00
6256;DHT22;3161;48.794;9.784;2023-07-08T10:33:13;28.60;64.70
6256;DHT22;3161;48.794;9.784;2023-07-08T10:35:42;28.50;64.30
6256;DHT22;3161;48.794;9.784;2023-07-08T10:46:38;28.20;65.60
6256;DHT22;3161;48.794;9.784;2023-07-08T10:54:51;28.20;66.10
6256;DHT22;3161;48.794;9.784;2023-07-08T11:03:06;28.30;65.70
6256;DHT22;3161;48.794;9.784;2023-07-08T11:05:48;28.30;66.20
6256;DHT22;3161;48.794;9.784;2023-07-08T11:08:24;28.30;66.10
6256;DHT22;3161;48.794;9.784;2023-07-08T11:11:12;28.50;65.50
6256;DHT22;3161;48.794;9.784;2023-07-08T11:13:41;28.70;65.60
6256;DHT22;3161;48.794;9.784;2023-07-08T11:16:17;28.90;65.50
6256;DHT22;3161;48.794;9.784;2023-07-08T11:21:31;29.20;65.70
6256;DHT22;3161;48.794;9.784;2023-07-08T11:24:02;29.40;62.40
6256;DHT22;3161;48.794;9.784;2023-07-08T11:26:38;29.50;58.70
6256;DHT22;3161;48.794;9.784;2023-07-08T11:29:18;29.70;59.20
6256;DHT22;3161;48.794;9.784;2023-07-08T11:31:43;29.80;58.00
6256;DHT22;3161;48.794;9.784;2023-07-08T11:34:12;30.00;58.70
6256;DHT22;3161;48.794;9.784;2023-07-08T11:36:41;30.10;57.10
6256;DHT22;3161;48.794;9.784;2023-07-08T11:39:32;30.30;53.30
6256;DHT22;3161;48.794;9.784;2023-07-08T11:42:16;30.40;54.00
6256;DHT22;3161;48.794;9.784;2023-07-08T11:44:35;30.70;54.10
6256;DHT22;3161;48.794;9.784;2023-07-08T11:47:10;30.80;55.70
6256;DHT22;3161;48.794;9.784;2023-07-08T11:49:32;31.00;52.50
6256;DHT22;3161;48.794;9.784;2023-07-08T11:52:01;31.20;53.70
6256;DHT22;3161;48.794;9.784;2023-07-08T11:54:31;31.40;52.20
6256;DHT22;3161;48.794;9.784;2023-07-08T11:57:04;31.50;52.70
6256;DHT22;3161;48.794;9.784;2023-07-08T11:59:38;31.70;52.30
6256;DHT22;3161;48.794;9.784;2023-07-08T12:02:20;32.00;52.60
6256;DHT22;3161;48.794;9.784;2023-07-08T12:05:28;32.50;52.40
6256;DHT22;3161;48.794;9.784;2023-07-08T12:07:46;32.90;50.80
6256;DHT22;3161;48.794;9.784;2023-07-08T12:10:26;33.10;49.30
6256;DHT22;3161;48.794;9.784;2023-07-08T12:12:53;33.10;49.40
6256;DHT22;3161;48.794;9.784;2023-07-08T12:15:25;33.10;48.40
6256;DHT22;3161;48.794;9.784;2023-07-08T12:18:06;33.10;48.50
6256;DHT22;3161;48.794;9.784;2023-07-08T12:20:34;33.00;48.90
6256;DHT22;3161;48.794;9.784;2023-07-08T12:23:02;33.10;49.40
6256;DHT22;3161;48.794;9.784;2023-07-08T12:25:33;33.10;47.90
6256;DHT22;3161;48.794;9.784;2023-07-08T12:28:02;33.10;47.00
6256;DHT22;3161;48.794;9.784;2023-07-08T12:30:31;33.00;48.30
6256;DHT22;3161;48.794;9.784;2023-07-08T12:33:00;33.00;48.70
6256;DHT22;3161;48.794;9.784;2023-07-08T12:35:33;32.90;48.00
6256;DHT22;3161;48.794;9.784;2023-07-08T12:38:18;32.90;48.30
6256;DHT22;3161;48.794;9.784;2023-07-08T12:40:41;32.90;48.10
6256;DHT22;3161;48.794;9.784;2023-07-08T12:43:12;32.90;47.40
6256;DHT22;3161;48.794;9.784;2023-07-08T12:45:40;32.80;48.70
6256;DHT22;3161;48.794;9.784;2023-07-08T12:48:09;32.90;48.50
6256;DHT22;3161;48.794;9.784;2023-07-08T12:50:37;33.00;49.50
6256;DHT22;3161;48.794;9.784;2023-07-08T12:53:05;33.10;49.10
6256;DHT22;3161;48.794;9.784;2023-07-08T12:55:35;33.40;49.60
6256;DHT22;3161;48.794;9.784;2023-07-08T12:58:04;33.70;48.20
6256;DHT22;3161;48.794;9.784;2023-07-08T13:00:34;34.20;46.80
6256;DHT22;3161;48.794;9.784;2023-07-08T13:03:08;34.60;45.80
6256;DHT22;3161;48.794;9.784;2023-07-08T13:05:36;35.10;44.60
6256;DHT22;3161;48.794;9.784;2023-07-08T13:08:05;35.30;43.30
6256;DHT22;3161;48.794;9.784;2023-07-08T13:10:35;35.90;45.40
6256;DHT22;3161;48.794;9.784;2023-07-08T13:13:04;36.80;44.70
6256;DHT22;3161;48.794;9.784;2023-07-08T13:15:35;38.10;40.40
6256;DHT22;3161;48.794;9.784;2023-07-08T13:18:13;39.00;38.90
6256;DHT22;3161;48.794;9.784;2023-07-08T13:20:39;39.20;38.40
6256;DHT22;3161;48.794;9.784;2023-07-08T13:23:08;39.20;40.00
6256;DHT22;3161;48.794;9.784;2023-07-08T13:25:38;39.50;40.10
6256;DHT22;3161;48.794;9.784;2023-07-08T13:28:17;39.90;38.60
6256;DHT22;3161;48.794;9.784;2023-07-08T13:30:56;39.90;37.90
6256;DHT22;3161;48.794;9.784;2023-07-08T13:33:33;40.30;37.90
6256;DHT22;3161;48.794;9.784;2023-07-08T13:36:04;40.50;36.70
6256;DHT22;3161;48.794;9.784;2023-07-08T13:38:35;41.00;36.30
6256;DHT22;3161;48.794;9.784;2023-07-08T13:41:05;41.90;35.00
6256;DHT22;3161;48.794;9.784;2023-07-08T13:43:35;43.20;31.80
6256;DHT22;3161;48.794;9.784;2023-07-08T13:46:04;44.70;31.80
6256;DHT22;3161;48.794;9.784;2023-07-08T13:48:43;46.00;30.00
6256;DHT22;3161;48.794;9.784;2023-07-08T13:51:16;46.70;29.20
6256;DHT22;3161;48.794;9.784;2023-07-08T13:53:47;47.10;28.90
6256;DHT22;3161;48.794;9.784;2023-07-08T13:58:51;45.30;29.20
6256;DHT22;3161;48.794;9.784;2023-07-08T14:01:22;43.90;31.30
6256;DHT22;3161;48.794;9.784;2023-07-08T14:03:52;42.40;31.30
6256;DHT22;3161;48.794;9.784;2023-07-08T14:06:23;41.10;32.40
6256;DHT22;3161;48.794;9.784;2023-07-08T14:09:00;40.10;33.40
6256;DHT22;3161;48.794;9.784;2023-07-08T14:11:27;38.80;33.70
6256;DHT22;3161;48.794;9.784;2023-07-08T14:13:55;38.10;35.30
6256;DHT22;3161;48.794;9.784;2023-07-08T14:16:27;37.50;36.80
6256;DHT22;3161;48.794;9.784;2023-07-08T14:18:58;36.80;36.30
6256;DHT22;3161;48.794;9.784;2023-07-08T14:21:26;36.30;38.10
6256;DHT22;3161;48.794;9.784;2023-07-08T14:23:54;35.90;36.20
6256;DHT22;3161;48.794;9.784;2023-07-08T14:26:22;35.70;38.10
6256;DHT22;3161;48.794;9.784;2023-07-08T14:28:49;35.40;38.30
6256;DHT22;3161;48.794;9.784;2023-07-08T14:31:20;35.20;39.20
6256;DHT22;3161;48.794;9.784;2023-07-08T14:33:48;35.10;37.90
6256;DHT22;3161;48.794;9.784;2023-07-08T14:36:16;34.90;37.90
6256;DHT22;3161;48.794;9.784;2023-07-08T14:38:44;34.70;39.50
6256;DHT22;3161;48.794;9.784;2023-07-08T14:41:12;34.50;40.20
6256;DHT22;3161;48.794;9.784;2023-07-08T14:43:39;34.40;41.30
6256;DHT22;3161;48.794;9.784;2023-07-08T14:46:08;34.40;41.10
6256;DHT22;3161;48.794;9.784;2023-07-08T14:48:37;34.30;39.80
6256;DHT22;3161;48.794;9.784;2023-07-08T14:51:04;34.20;39.80
6256;DHT22;3161;48.794;9.784;2023-07-08T14:53:32;34.10;39.00
6256;DHT22;3161;48.794;9.784;2023-07-08T14:56:04;33.90;40.10
6256;DHT22;3161;48.794;9.784;2023-07-08T14:58:32;33.70;40.00
6256;DHT22;3161;48.794;9.784;2023-07-08T15:01:07;33.40;39.40
6256;DHT22;3161;48.794;9.784;2023-07-08T15:03:31;33.10;41.40
6256;DHT22;3161;48.794;9.784;2023-07-08T15:05:59;33.00;41.00
6256;DHT22;3161;48.794;9.784;2023-07-08T15:08:27;32.90;42.40
6256;DHT22;3161;48.794;9.784;2023-07-08T15:10:55;32.90;42.30
6256;DHT22;3161;48.794;9.784;2023-07-08T15:13:25;32.80;41.40
6256;DHT22;3161;48.794;9.784;2023-07-08T15:15:55;32.80;41.10
6256;DHT22;3161;48.794;9.784;2023-07-08T15:18:23;32.70;41.10
6256;DHT22;3161;48.794;9.784;2023-07-08T15:20:51;32.60;42.00
6256;DHT22;3161;48.794;9.784;2023-07-08T15:23:18;32.50;42.10
6256;DHT22;3161;48.794;9.784;2023-07-08T15:25:47;32.40;42.70
6256;DHT22;3161;48.794;9.784;2023-07-08T15:28:25;32.40;44.20
6256;DHT22;3161;48.794;9.784;2023-07-08T15:30:46;32.40;45.40
6256;DHT22;3161;48.794;9.784;2023-07-08T15:33:15;32.30;45.60
6256;DHT22;3161;48.794;9.784;2023-07-08T15:35:43;32.20;46.30
6256;DHT22;3161;48.794;9.784;2023-07-08T15:38:11;32.10;45.60
6256;DHT22;3161;48.794;9.784;2023-07-08T15:40:39;32.00;45.10
6256;DHT22;3161;48.794;9.784;2023-07-08T15:43:09;31.90;45.10
6256;DHT22;3161;48.794;9.784;2023-07-08T15:45:37;31.90;45.20
6256;DHT22;3161;48.794;9.784;2023-07-08T15:48:14;31.80;44.80
6256;DHT22;3161;48.794;9.784;2023-07-08T15:50:43;31.80;44.60
6256;DHT22;3161;48.794;9.784;2023-07-08T15:53:11;31.80;44.70
6256;DHT22;3161;48.794;9.784;2023-07-08T15:55:40;31.70;44.80
6256;DHT22;3161;48.794;9.784;2023-07-08T15:58:26;31.70;44.40
6256;DHT22;3161;48.794;9.784;2023-07-08T16:00:55;31.70;46.00
6256;DHT22;3161;48.794;9.784;2023-07-08T16:03:25;31.60;46.10
6256;DHT22;3161;48.794;9.784;2023-07-08T16:05:54;31.60;46.10
6256;DHT22;3161;48.794;9.784;2023-07-08T16:08:23;31.70;47.00
6256;DHT22;3161;48.794;9.784;2023-07-08T16:11:00;31.70;46.80
6256;DHT22;3161;48.794;9.784;2023-07-08T16:13:30;31.70;47.40
6256;DHT22;3161;48.794;9.784;2023-07-08T16:15:58;31.70;46.30
6256;DHT22;3161;48.794;9.784;2023-07-08T16:18:26;31.70;45.80
6256;DHT22;3161;48.794;9.784;2023-07-08T16:20:54;31.60;46.40
6256;DHT22;3161;48.794;9.784;2023-07-08T16:23:21;31.70;46.30
6256;DHT22;3161;48.794;9.784;2023-07-08T16:25:51;31.60;45.50
6256;DHT22;3161;48.794;9.784;2023-07-08T16:28:43;31.60;45.10
6256;DHT22;3161;48.794;9.784;2023-07-08T16:31:19;31.60;45.50
6256;DHT22;3161;48.794;9.784;2023-07-08T16:33:48;31.60;46.00
6256;DHT22;3161;48.794;9.784;2023-07-08T16:36:18;31.50;46.30
6256;DHT22;3161;48.794;9.784;2023-07-08T16:38:47;31.60;46.00
6256;DHT22;3161;48.794;9.784;2023-07-08T16:41:21;31.60;46.90
6256;DHT22;3161;48.794;9.784;2023-07-08T16:43:44;31.50;45.90
6256;DHT22;3161;48.794;9.784;2023-07-08T16:46:14;31.50;46.00
6256;DHT22;3161;48.794;9.784;2023-07-08T16:48:42;31.50;46.30
6256;DHT22;3161;48.794;9.784;2023-07-08T16:51:24;31.50;46.30
6256;DHT22;3161;48.794;9.784;2023-07-08T16:53:57;31.50;47.00
6256;DHT22;3161;48.794;9.784;2023-07-08T16:56:25;31.50;46.70
6256;DHT22;3161;48.794;9.784;2023-07-08T16:58:53;31.50;47.00
6256;DHT22;3161;48.794;9.784;2023-07-08T17:01:22;31.50;47.10
6256;DHT22;3161;48.794;9.784;2023-07-08T17:03:52;30.40;46.10
6256;DHT22;3161;48.794;9.784;2023-07-08T17:06:20;31.40;47.20
6256;DHT22;3161;48.794;9.784;2023-07-08T17:08:48;31.40;47.40
6256;DHT22;3161;48.794;9.784;2023-07-08T17:11:16;31.40;47.40